createdAt,value
2022-08-29T00:00:00.000Z,18.07
2022-08-29T00:15:00.000Z,17.19
2022-08-29T00:30:00.000Z,16.64
2022-08-29T00:45:00.000Z,16.21
2022-08-29T01:00:00.000Z,16.31
2022-08-29T01:15:00.000Z,18.07
2022-08-29T01:30:00.000Z,19.34
2022-08-29T01:45:00.000Z,20.15
2022-08-29T02:00:00.000Z,19.56
2022-08-29T02:15:00.000Z,18.95
2022-08-29T02:30:00.000Z,19.57
2022-08-29T02:45:00.000Z,17.71
2022-08-29T03:00:00.000Z,16.75
2022-08-29T03:15:00.000Z,16.66
2022-08-29T03:30:00.000Z,16.42
2022-08-29T03:45:00.000Z,16.71
2022-08-29T04:00:00.000Z,16.96
2022-08-29T04:15:00.000Z,17.31
2022-08-29T04:30:00.000Z,18.19
2022-08-29T04:45:00.000Z,18.41
2022-08-29T05:00:00.000Z,17.32
2022-08-29T05:15:00.000Z,16.36
2022-08-29T05:30:00.000Z,15.78
2022-08-29T05:45:00.000Z,15.79
2022-08-29T06:00:00.000Z,16.16
2022-08-29T06:15:00.000Z,14.26
2022-08-29T06:30:00.000Z,13.07
2022-08-29T06:45:00.000Z,13.04
2022-08-29T07:00:00.000Z,11.2
2022-08-29T07:15:00.000Z,10.11
2022-08-29T07:30:00.000Z,9.19
2022-08-29T07:45:00.000Z,7.31
2022-08-29T08:00:00.000Z,6.47
2022-08-29T08:15:00.000Z,5.72
2022-08-29T08:30:00.000Z,6.89
2022-08-29T08:45:00.000Z,7.16
2022-08-29T09:00:00.000Z,7.47
2022-08-29T09:15:00.000Z,8.15
2022-08-29T09:30:00.000Z,10.33
2022-08-29T09:45:00.000Z,13.42
2022-08-29T10:00:00.000Z,12.75
2022-08-29T10:15:00.000Z,12.75
2022-08-29T10:30:00.000Z,12.84
2022-08-29T10:45:00.000Z,12.88
2022-08-29T11:00:00.000Z,12.38
2022-08-29T11:15:00.000Z,14.21
2022-08-29T11:30:00.000Z,13.07
2022-08-29T11:45:00.000Z,12.42
2022-08-29T12:00:00.000Z,10.82
2022-08-29T12:15:00.000Z,12.99
2022-08-29T12:30:00.000Z,11.67
2022-08-29T12:45:00.000Z,11.74
2022-08-29T13:00:00.000Z,11.27
2022-08-29T13:15:00.000Z,11.99
2022-08-29T13:30:00.000Z,11.86
2022-08-29T13:45:00.000Z,11.41
2022-08-29T14:00:00.000Z,12.4
2022-08-29T14:15:00.000Z,10.65
2022-08-29T14:30:00.000Z,10.89
2022-08-29T14:45:00.000Z,11.18
2022-08-29T15:00:00.000Z,10.68
2022-08-29T15:15:00.000Z,10.47
2022-08-29T15:30:00.000Z,10.26
2022-08-29T15:45:00.000Z,10.13
2022-08-29T16:00:00.000Z,10.67
2022-08-29T16:15:00.000Z,9.73
2022-08-29T16:30:00.000Z,9.82
2022-08-29T16:45:00.000Z,10.22
2022-08-29T17:00:00.000Z,10.14
2022-08-29T17:15:00.000Z,10.29
2022-08-29T17:30:00.000Z,10.78
2022-08-29T17:45:00.000Z,12.18
2022-08-29T18:00:00.000Z,12.6
2022-08-29T18:15:00.000Z,14.14
2022-08-29T18:30:00.000Z,15.54
2022-08-29T18:45:00.000Z,15.98
2022-08-29T19:00:00.000Z,16.04
2022-08-29T19:15:00.000Z,17.75
2022-08-29T19:30:00.000Z,17.75
2022-08-29T19:45:00.000Z,19.45
2022-08-29T20:00:00.000Z,18.94
2022-08-29T20:15:00.000Z,19.22
2022-08-29T20:30:00.000Z,19.05
2022-08-29T20:45:00.000Z,19.25
2022-08-29T21:00:00.000Z,20.13
2022-08-29T21:15:00.000Z,19.96
2022-08-29T21:30:00.000Z,19.86
2022-08-29T21:45:00.000Z,20.27
2022-08-29T22:00:00.000Z,21.71
2022-08-29T22:15:00.000Z,20.92
2022-08-29T22:30:00.000Z,20.81
2022-08-29T22:45:00.000Z,21.26
2022-08-29T23:00:00.000Z,21.53
2022-08-29T23:15:00.000Z,22.04
2022-08-29T23:30:00.000Z,21.36
2022-08-29T23:45:00.000Z,21.85
